sensor_id;sensor_type;location;lat;lon;timestamp;pressure;altitude;pressure_sealevel;temperature
69785;BMP280;14177;51.520;6.764;2023-09-18T00:00:46;100412.84;;;19.90
69785;BMP280;14177;51.520;6.764;2023-09-18T00:03:13;100402.91;;;19.94
69785;BMP280;14177;51.520;6.764;2023-09-18T00:05:40;100390.44;;;19.96
69785;BMP280;14177;51.520;6.764;2023-09-18T00:08:07;100385.00;;;19.99
69785;BMP280;14177;51.520;6.764;2023-09-18T00:10:34;100398.66;;;20.04
69785;BMP280;14177;51.520;6.764;2023-09-18T00:13:02;100392.19;;;20.08
69785;BMP280;14177;51.520;6.764;2023-09-18T00:15:30;100396.28;;;20.12
69785;BMP280;14177;51.520;6.764;2023-09-18T00:17:57;100396.06;;;20.15
69785;BMP280;14177;51.520;6.764;2023-09-18T00:20:24;100392.47;;;20.16
69785;BMP280;14177;51.520;6.764;2023-09-18T00:22:55;100387.91;;;20.18
69785;BMP280;14177;51.520;6.764;2023-09-18T00:25:22;100392.09;;;20.20
69785;BMP280;14177;51.520;6.764;2023-09-18T00:27:50;100381.47;;;20.22
69785;BMP280;14177;51.520;6.764;2023-09-18T00:30:18;100374.28;;;20.24
69785;BMP280;14177;51.520;6.764;2023-09-18T00:32:45;100368.88;;;20.25
69785;BMP280;14177;51.520;6.764;2023-09-18T00:35:14;100361.81;;;20.26
69785;BMP280;14177;51.520;6.764;2023-09-18T00:37:41;100358.22;;;20.27
69785;BMP280;14177;51.520;6.764;2023-09-18T00:40:10;100351.84;;;20.29
69785;BMP280;14177;51.520;6.764;2023-09-18T00:42:38;100342.16;;;20.30
69785;BMP280;14177;51.520;6.764;2023-09-18T00:45:05;100342.25;;;20.28
69785;BMP280;14177;51.520;6.764;2023-09-18T00:47:33;100336.88;;;20.30
69785;BMP280;14177;51.520;6.764;2023-09-18T00:50:00;100333.53;;;20.28
69785;BMP280;14177;51.520;6.764;2023-09-18T00:52:28;100328.47;;;20.25
69785;BMP280;14177;51.520;6.764;2023-09-18T00:54:55;100333.84;;;20.23
69785;BMP280;14177;51.520;6.764;2023-09-18T00:57:23;100325.94;;;20.23
69785;BMP280;14177;51.520;6.764;2023-09-18T00:59:50;100327.84;;;20.21
69785;BMP280;14177;51.520;6.764;2023-09-18T01:02:17;100323.44;;;20.22
69785;BMP280;14177;51.520;6.764;2023-09-18T01:04:49;100317.31;;;20.21
69785;BMP280;14177;51.520;6.764;2023-09-18T01:07:16;100311.31;;;20.19
69785;BMP280;14177;51.520;6.764;2023-09-18T01:09:43;100305.31;;;20.17
69785;BMP280;14177;51.520;6.764;2023-09-18T01:15:37;100289.97;;;20.11
69785;BMP280;14177;51.520;6.764;2023-09-18T01:18:10;100293.47;;;20.12
69785;BMP280;14177;51.520;6.764;2023-09-18T01:20:37;100295.16;;;20.13
69785;BMP280;14177;51.520;6.764;2023-09-18T01:23:04;100295.00;;;20.14
69785;BMP280;14177;51.520;6.764;2023-09-18T01:25:31;100299.22;;;20.17
69785;BMP280;14177;51.520;6.764;2023-09-18T01:28:00;100300.91;;;20.18
69785;BMP280;14177;51.520;6.764;2023-09-18T01:30:27;100301.72;;;20.18
69785;BMP280;14177;51.520;6.764;2023-09-18T01:32:57;100296.59;;;20.17
69785;BMP280;14177;51.520;6.764;2023-09-18T01:35:26;100292.13;;;20.17
69785;BMP280;14177;51.520;6.764;2023-09-18T01:37:58;100285.19;;;20.16
69785;BMP280;14177;51.520;6.764;2023-09-18T01:40:26;100287.00;;;20.16
69785;BMP280;14177;51.520;6.764;2023-09-18T01:42:54;100285.56;;;20.12
69785;BMP280;14177;51.520;6.764;2023-09-18T01:45:21;100279.44;;;20.11
69785;BMP280;14177;51.520;6.764;2023-09-18T01:47:48;100276.78;;;20.11
69785;BMP280;14177;51.520;6.764;2023-09-18T01:50:14;100272.47;;;20.10
69785;BMP280;14177;51.520;6.764;2023-09-18T01:52:41;100272.47;;;20.10
69785;BMP280;14177;51.520;6.764;2023-09-18T01:55:09;100264.69;;;20.09
69785;BMP280;14177;51.520;6.764;2023-09-18T01:57:36;100263.84;;;20.08
69785;BMP280;14177;51.520;6.764;2023-09-18T02:00:04;100255.22;;;20.06
69785;BMP280;14177;51.520;6.764;2023-09-18T02:02:38;100253.66;;;20.04
69785;BMP280;14177;51.520;6.764;2023-09-18T02:05:23;100261.81;;;20.01
69785;BMP280;14177;51.520;6.764;2023-09-18T02:07:51;100254.88;;;20.00
69785;BMP280;14177;51.520;6.764;2023-09-18T02:10:19;100255.06;;;19.97
69785;BMP280;14177;51.520;6.764;2023-09-18T02:12:46;100258.66;;;19.96
69785;BMP280;14177;51.520;6.764;2023-09-18T02:15:13;100255.06;;;19.97
69785;BMP280;14177;51.520;6.764;2023-09-18T02:17:40;100246.44;;;19.95
69785;BMP280;14177;51.520;6.764;2023-09-18T02:20:08;100244.66;;;19.95
69785;BMP280;14177;51.520;6.764;2023-09-18T02:22:39;100249.78;;;19.97
69785;BMP280;14177;51.520;6.764;2023-09-18T02:25:13;100238.28;;;19.98
69785;BMP280;14177;51.520;6.764;2023-09-18T02:27:40;100235.66;;;19.98
69785;BMP280;14177;51.520;6.764;2023-09-18T02:30:07;100231.25;;;19.98
69785;BMP280;14177;51.520;6.764;2023-09-18T02:32:36;100224.91;;;20.01
69785;BMP280;14177;51.520;6.764;2023-09-18T02:35:05;100220.59;;;20.00
69785;BMP280;14177;51.520;6.764;2023-09-18T02:37:34;100205.50;;;20.02
69785;BMP280;14177;51.520;6.764;2023-09-18T02:40:01;100198.69;;;19.99
69785;BMP280;14177;51.520;6.764;2023-09-18T02:42:27;100189.91;;;19.99
69785;BMP280;14177;51.520;6.764;2023-09-18T02:44:54;100169.91;;;19.96
69785;BMP280;14177;51.520;6.764;2023-09-18T02:47:21;100168.09;;;19.97
69785;BMP280;14177;51.520;6.764;2023-09-18T02:49:49;100161.28;;;19.94
69785;BMP280;14177;51.520;6.764;2023-09-18T02:52:16;100158.63;;;19.94
69785;BMP280;14177;51.520;6.764;2023-09-18T02:54:43;100156.09;;;19.93
69785;BMP280;14177;51.520;6.764;2023-09-18T02:57:09;100151.78;;;19.92
69785;BMP280;14177;51.520;6.764;2023-09-18T02:59:37;100137.06;;;19.89
69785;BMP280;14177;51.520;6.764;2023-09-18T03:02:04;100131.19;;;19.86
69785;BMP280;14177;51.520;6.764;2023-09-18T03:04:31;100151.44;;;19.85
69785;BMP280;14177;51.520;6.764;2023-09-18T03:06:58;100157.69;;;19.84
69785;BMP280;14177;51.520;6.764;2023-09-18T03:09:26;100145.31;;;19.85
69785;BMP280;14177;51.520;6.764;2023-09-18T03:11:53;100131.19;;;19.86
69785;BMP280;14177;51.520;6.764;2023-09-18T03:14:20;100137.31;;;19.86
69785;BMP280;14177;51.520;6.764;2023-09-18T03:16:47;100132.03;;;19.86
69785;BMP280;14177;51.520;6.764;2023-09-18T03:19:14;100120.41;;;19.89
69785;BMP280;14177;51.520;6.764;2023-09-18T03:21:41;100122.06;;;19.90
69785;BMP280;14177;51.520;6.764;2023-09-18T03:24:08;100116.81;;;19.90
69785;BMP280;14177;51.520;6.764;2023-09-18T03:26:35;100104.34;;;19.92
69785;BMP280;14177;51.520;6.764;2023-09-18T03:29:03;100103.16;;;19.96
69785;BMP280;14177;51.520;6.764;2023-09-18T03:31:31;100112.41;;;20.01
69785;BMP280;14177;51.520;6.764;2023-09-18T03:33:58;100104.00;;;20.07
69785;BMP280;14177;51.520;6.764;2023-09-18T03:36:27;100084.22;;;20.13
69785;BMP280;14177;51.520;6.764;2023-09-18T03:38:54;100075.94;;;20.17
69785;BMP280;14177;51.520;6.764;2023-09-18T03:41:21;100079.19;;;20.21
69785;BMP280;14177;51.520;6.764;2023-09-18T03:43:48;100076.16;;;20.25
69785;BMP280;14177;51.520;6.764;2023-09-18T03:46:17;100079.00;;;20.33
69785;BMP280;14177;51.520;6.764;2023-09-18T03:48:47;100082.44;;;20.45
69785;BMP280;14177;51.520;6.764;2023-09-18T03:51:15;100075.91;;;20.60
69785;BMP280;14177;51.520;6.764;2023-09-18T03:53:43;100072.13;;;20.73
69785;BMP280;14177;51.520;6.764;2023-09-18T03:56:10;100068.63;;;20.84
69785;BMP280;14177;51.520;6.764;2023-09-18T03:58:37;100064.38;;;20.92
69785;BMP280;14177;51.520;6.764;2023-09-18T04:01:04;100061.09;;;20.99
69785;BMP280;14177;51.520;6.764;2023-09-18T04:03:32;100048.47;;;21.03
69785;BMP280;14177;51.520;6.764;2023-09-18T04:05:59;100043.78;;;21.06
69785;BMP280;14177;51.520;6.764;2023-09-18T04:08:26;100040.03;;;21.09
69785;BMP280;14177;51.520;6.764;2023-09-18T04:10:55;100024.88;;;21.11
69785;BMP280;14177;51.520;6.764;2023-09-18T04:13:24;100031.03;;;21.11
69785;BMP280;14177;51.520;6.764;2023-09-18T04:15:52;100029.06;;;21.13
69785;BMP280;14177;51.520;6.764;2023-09-18T04:18:24;100049.50;;;21.11
69785;BMP280;14177;51.520;6.764;2023-09-18T04:20:51;100050.56;;;21.09
69785;BMP280;14177;51.520;6.764;2023-09-18T04:23:24;100060.31;;;21.08
69785;BMP280;14177;51.520;6.764;2023-09-18T04:25:53;100069.22;;;21.07
69785;BMP280;14177;51.520;6.764;2023-09-18T04:28:22;100062.97;;;21.08
69785;BMP280;14177;51.520;6.764;2023-09-18T04:30:50;100070.47;;;21.13
69785;BMP280;14177;51.520;6.764;2023-09-18T04:33:17;100083.28;;;21.17
69785;BMP280;14177;51.520;6.764;2023-09-18T04:35:45;100087.06;;;21.24
69785;BMP280;14177;51.520;6.764;2023-09-18T04:38:13;100079.59;;;21.29
69785;BMP280;14177;51.520;6.764;2023-09-18T04:40:44;100080.03;;;21.34
69785;BMP280;14177;51.520;6.764;2023-09-18T04:43:13;100089.53;;;21.37
69785;BMP280;14177;51.520;6.764;2023-09-18T04:45:40;100106.78;;;21.41
69785;BMP280;14177;51.520;6.764;2023-09-18T04:48:07;100103.28;;;21.40
69785;BMP280;14177;51.520;6.764;2023-09-18T04:50:35;100105.94;;;21.40
69785;BMP280;14177;51.520;6.764;2023-09-18T04:53:03;100091.19;;;21.38
69785;BMP280;14177;51.520;6.764;2023-09-18T04:55:31;100075.19;;;21.39
69785;BMP280;14177;51.520;6.764;2023-09-18T04:57:58;100088.41;;;21.39
69785;BMP280;14177;51.520;6.764;2023-09-18T05:00:27;100090.09;;;21.40
69785;BMP280;14177;51.520;6.764;2023-09-18T05:02:58;100081.47;;;21.38
69785;BMP280;14177;51.520;6.764;2023-09-18T05:05:30;100090.09;;;21.40
69785;BMP280;14177;51.520;6.764;2023-09-18T05:07:57;100093.00;;;21.37
69785;BMP280;14177;51.520;6.764;2023-09-18T05:10:24;100087.00;;;21.35
69785;BMP280;14177;51.520;6.764;2023-09-18T05:12:51;100093.13;;;21.36
69785;BMP280;14177;51.520;6.764;2023-09-18T05:15:26;100102.84;;;21.35
69785;BMP280;14177;51.520;6.764;2023-09-18T05:17:57;100087.25;;;21.32
69785;BMP280;14177;51.520;6.764;2023-09-18T05:20:28;100080.31;;;21.31
69785;BMP280;14177;51.520;6.764;2023-09-18T05:22:57;100075.28;;;21.28
69785;BMP280;14177;51.520;6.764;2023-09-18T05:25:27;100071.22;;;21.24
69785;BMP280;14177;51.520;6.764;2023-09-18T05:28:00;100060.22;;;21.19
69785;BMP280;14177;51.520;6.764;2023-09-18T05:30:30;100068.41;;;21.16
69785;BMP280;14177;51.520;6.764;2023-09-18T05:33:01;100088.00;;;21.14
69785;BMP280;14177;51.520;6.764;2023-09-18T05:35:41;100094.38;;;21.11
69785;BMP280;14177;51.520;6.764;2023-09-18T05:38:13;100111.91;;;21.12
69785;BMP280;14177;51.520;6.764;2023-09-18T05:40:41;100104.81;;;21.13
69785;BMP280;14177;51.520;6.764;2023-09-18T05:43:08;100095.06;;;21.13
69785;BMP280;14177;51.520;6.764;2023-09-18T05:45:35;100092.44;;;21.13
69785;BMP280;14177;51.520;6.764;2023-09-18T05:48:03;100089.94;;;21.12
69785;BMP280;14177;51.520;6.764;2023-09-18T05:50:35;100083.81;;;21.11
69785;BMP280;14177;51.520;6.764;2023-09-18T05:53:03;100096.31;;;21.09
69785;BMP280;14177;51.520;6.764;2023-09-18T05:55:32;100090.44;;;21.06
69785;BMP280;14177;51.520;6.764;2023-09-18T05:58:00;100101.84;;;21.06
69785;BMP280;14177;51.520;6.764;2023-09-18T06:00:30;100116.03;;;21.05
69785;BMP280;14177;51.520;6.764;2023-09-18T06:02:58;100115.31;;;21.03
69785;BMP280;14177;51.520;6.764;2023-09-18T06:05:26;100127.81;;;21.01
69785;BMP280;14177;51.520;6.764;2023-09-18T06:07:53;100130.44;;;21.01
69785;BMP280;14177;51.520;6.764;2023-09-18T06:10:20;100122.38;;;21.03
69785;BMP280;14177;51.520;6.764;2023-09-18T06:12:47;100112.69;;;21.03
69785;BMP280;14177;51.520;6.764;2023-09-18T06:15:14;100118.78;;;21.04
69785;BMP280;14177;51.520;6.764;2023-09-18T06:17:43;100115.78;;;21.08
69785;BMP280;14177;51.520;6.764;2023-09-18T06:20:12;100117.44;;;21.09
69785;BMP280;14177;51.520;6.764;2023-09-18T06:22:43;100107.59;;;21.11
69785;BMP280;14177;51.520;6.764;2023-09-18T06:25:10;100113.56;;;21.13
69785;BMP280;14177;51.520;6.764;2023-09-18T06:27:37;100116.63;;;21.18
69785;BMP280;14177;51.520;6.764;2023-09-18T06:30:06;100125.97;;;21.22
69785;BMP280;14177;51.520;6.764;2023-09-18T06:32:33;100136.28;;;21.25
69785;BMP280;14177;51.520;6.764;2023-09-18T06:35:01;100129.78;;;21.29
69785;BMP280;14177;51.520;6.764;2023-09-18T06:37:28;100126.16;;;21.30
69785;BMP280;14177;51.520;6.764;2023-09-18T06:39:55;100124.94;;;21.34
69785;BMP280;14177;51.520;6.764;2023-09-18T06:42:25;100125.66;;;21.36
69785;BMP280;14177;51.520;6.764;2023-09-18T06:44:57;100126.50;;;21.37
69785;BMP280;14177;51.520;6.764;2023-09-18T06:47:24;100128.19;;;21.38
69785;BMP280;14177;51.520;6.764;2023-09-18T06:49:51;100151.81;;;21.39
69785;BMP280;14177;51.520;6.764;2023-09-18T06:52:19;100157.94;;;21.40
69785;BMP280;14177;51.520;6.764;2023-09-18T06:54:46;100149.06;;;21.41
69785;BMP280;14177;51.520;6.764;2023-09-18T06:57:13;100148.66;;;21.45
69785;BMP280;14177;51.520;6.764;2023-09-18T06:59:40;100153.53;;;21.50
69785;BMP280;14177;51.520;6.764;2023-09-18T07:02:07;100157.72;;;21.52
69785;BMP280;14177;51.520;6.764;2023-09-18T07:04:34;100154.13;;;21.53
69785;BMP280;14177;51.520;6.764;2023-09-18T07:07:01;100160.81;;;21.57
69785;BMP280;14177;51.520;6.764;2023-09-18T07:09:28;100162.28;;;21.61
69785;BMP280;14177;51.520;6.764;2023-09-18T07:11:55;100166.44;;;21.64
69785;BMP280;14177;51.520;6.764;2023-09-18T07:14:22;100172.31;;;21.67
69785;BMP280;14177;51.520;6.764;2023-09-18T07:16:49;100176.75;;;21.67
69785;BMP280;14177;51.520;6.764;2023-09-18T07:19:16;100179.03;;;21.71
69785;BMP280;14177;51.520;6.764;2023-09-18T07:21:44;100169.41;;;21.70
69785;BMP280;14177;51.520;6.764;2023-09-18T07:24:11;100165.81;;;21.71
69785;BMP280;14177;51.520;6.764;2023-09-18T07:26:48;100172.88;;;21.71
69785;BMP280;14177;51.520;6.764;2023-09-18T07:29:16;100173.72;;;21.71
69785;BMP280;14177;51.520;6.764;2023-09-18T07:31:44;100183.34;;;21.72
69785;BMP280;14177;51.520;6.764;2023-09-18T07:34:11;100179.72;;;21.73
69785;BMP280;14177;51.520;6.764;2023-09-18T07:36:40;100188.47;;;21.74
69785;BMP280;14177;51.520;6.764;2023-09-18T07:39:07;100193.06;;;21.72
69785;BMP280;14177;51.520;6.764;2023-09-18T07:41:34;100191.25;;;21.72
69785;BMP280;14177;51.520;6.764;2023-09-18T07:44:01;100183.59;;;21.69
69785;BMP280;14177;51.520;6.764;2023-09-18T07:46:28;100192.22;;;21.71
69785;BMP280;14177;51.520;6.764;2023-09-18T07:48:56;100195.13;;;21.68
69785;BMP280;14177;51.520;6.764;2023-09-18T07:51:23;100184.81;;;21.65
69785;BMP280;14177;51.520;6.764;2023-09-18T07:53:50;100191.78;;;21.66
69785;BMP280;14177;51.520;6.764;2023-09-18T07:56:17;100195.41;;;21.65
69785;BMP280;14177;51.520;6.764;2023-09-18T07:58:45;100194.81;;;21.62
69785;BMP280;14177;51.520;6.764;2023-09-18T08:01:13;100196.47;;;21.63
69785;BMP280;14177;51.520;6.764;2023-09-18T08:03:42;100207.03;;;21.63
69785;BMP280;14177;51.520;6.764;2023-09-18T08:06:10;100200.53;;;21.67
69785;BMP280;14177;51.520;6.764;2023-09-18T08:08:38;100210.59;;;21.73
69785;BMP280;14177;51.520;6.764;2023-09-18T08:11:09;100220.91;;;21.76
69785;BMP280;14177;51.520;6.764;2023-09-18T08:13:37;100199.75;;;21.76
69785;BMP280;14177;51.520;6.764;2023-09-18T08:16:07;100199.66;;;21.77
69785;BMP280;14177;51.520;6.764;2023-09-18T08:18:34;100220.53;;;21.80
69785;BMP280;14177;51.520;6.764;2023-09-18T08:21:02;100203.25;;;21.76
69785;BMP280;14177;51.520;6.764;2023-09-18T08:23:31;100212.72;;;21.79
69785;BMP280;14177;51.520;6.764;2023-09-18T08:25:59;100203.56;;;21.83
69785;BMP280;14177;51.520;6.764;2023-09-18T08:28:26;100219.72;;;21.89
69785;BMP280;14177;51.520;6.764;2023-09-18T08:30:53;100230.72;;;21.94
69785;BMP280;14177;51.520;6.764;2023-09-18T08:33:21;100222.00;;;22.03
69785;BMP280;14177;51.520;6.764;2023-09-18T08:35:48;100221.47;;;22.09
69785;BMP280;14177;51.520;6.764;2023-09-18T08:38:16;100243.34;;;22.11
69785;BMP280;14177;51.520;6.764;2023-09-18T08:40:43;100251.81;;;22.05
69785;BMP280;14177;51.520;6.764;2023-09-18T08:43:14;100225.88;;;21.99
69785;BMP280;14177;51.520;6.764;2023-09-18T08:45:51;100225.63;;;22.02
69785;BMP280;14177;51.520;6.764;2023-09-18T08:48:20;100237.88;;;22.03
69785;BMP280;14177;51.520;6.764;2023-09-18T08:50:48;100238.28;;;21.99
69785;BMP280;14177;51.520;6.764;2023-09-18T08:53:16;100232.28;;;21.97
69785;BMP280;14177;51.520;6.764;2023-09-18T08:55:43;100240.94;;;21.99
69785;BMP280;14177;51.520;6.764;2023-09-18T08:58:10;100239.97;;;22.00
69785;BMP280;14177;51.520;6.764;2023-09-18T09:00:37;100228.28;;;22.02
69785;BMP280;14177;51.520;6.764;2023-09-18T09:03:05;100233.19;;;22.07
69785;BMP280;14177;51.520;6.764;2023-09-18T09:05:32;100234.88;;;22.17
69785;BMP280;14177;51.520;6.764;2023-09-18T09:08:00;100251.19;;;22.22
69785;BMP280;14177;51.520;6.764;2023-09-18T09:10:28;100249.38;;;22.22
69785;BMP280;14177;51.520;6.764;2023-09-18T09:12:59;100249.97;;;22.26
69785;BMP280;14177;51.520;6.764;2023-09-18T09:15:43;100254.97;;;22.29
69785;BMP280;14177;51.520;6.764;2023-09-18T09:18:14;100237.50;;;22.37
69785;BMP280;14177;51.520;6.764;2023-09-18T09:23:20;100238.94;;;22.51
69785;BMP280;14177;51.520;6.764;2023-09-18T09:25:47;100230.31;;;22.58
69785;BMP280;14177;51.520;6.764;2023-09-18T09:28:14;100231.13;;;22.59
69785;BMP280;14177;51.520;6.764;2023-09-18T09:30:43;100229.78;;;22.55
69785;BMP280;14177;51.520;6.764;2023-09-18T09:33:12;100224.59;;;22.53
69785;BMP280;14177;51.520;6.764;2023-09-18T09:35:40;100223.34;;;22.48
69785;BMP280;14177;51.520;6.764;2023-09-18T09:38:10;100216.66;;;22.53
69785;BMP280;14177;51.520;6.764;2023-09-18T09:40:42;100226.59;;;22.70
69785;BMP280;14177;51.520;6.764;2023-09-18T09:43:12;100234.25;;;22.83
69785;BMP280;14177;51.520;6.764;2023-09-18T09:45:46;100239.59;;;22.92
69785;BMP280;14177;51.520;6.764;2023-09-18T09:48:13;100252.13;;;23.00
69785;BMP280;14177;51.520;6.764;2023-09-18T09:50:47;100249.91;;;23.05
69785;BMP280;14177;51.520;6.764;2023-09-18T09:53:15;100256.63;;;23.09
69785;BMP280;14177;51.520;6.764;2023-09-18T09:55:42;100260.50;;;23.05
69785;BMP280;14177;51.520;6.764;2023-09-18T09:58:11;100269.69;;;23.01
69785;BMP280;14177;51.520;6.764;2023-09-18T10:00:53;100254.50;;;23.03
69785;BMP280;14177;51.520;6.764;2023-09-18T10:03:23;100242.13;;;23.13
69785;BMP280;14177;51.520;6.764;2023-09-18T10:05:54;100244.75;;;23.32
69785;BMP280;14177;51.520;6.764;2023-09-18T10:08:25;100244.78;;;23.41
69785;BMP280;14177;51.520;6.764;2023-09-18T10:11:06;100247.13;;;23.53
69785;BMP280;14177;51.520;6.764;2023-09-18T10:13:51;100246.28;;;23.62
69785;BMP280;14177;51.520;6.764;2023-09-18T10:16:23;100249.63;;;23.64
69785;BMP280;14177;51.520;6.764;2023-09-18T10:22:11;100264.13;;;23.98
69785;BMP280;14177;51.520;6.764;2023-09-18T10:24:47;100255.06;;;23.91
69785;BMP280;14177;51.520;6.764;2023-09-18T10:27:18;100246.94;;;24.29
69785;BMP280;14177;51.520;6.764;2023-09-18T10:29:49;100242.19;;;24.86
69785;BMP280;14177;51.520;6.764;2023-09-18T10:32:19;100236.09;;;25.21
69785;BMP280;14177;51.520;6.764;2023-09-18T10:34:48;100234.94;;;25.23
69785;BMP280;14177;51.520;6.764;2023-09-18T10:37:16;100224.00;;;25.26
69785;BMP280;14177;51.520;6.764;2023-09-18T10:39:45;100223.94;;;25.36
69785;BMP280;14177;51.520;6.764;2023-09-18T10:42:18;100225.09;;;25.59
69785;BMP280;14177;51.520;6.764;2023-09-18T10:44:46;100233.16;;;25.49
69785;BMP280;14177;51.520;6.764;2023-09-18T10:47:13;100230.00;;;25.71
69785;BMP280;14177;51.520;6.764;2023-09-18T10:49:42;100235.72;;;26.01
69785;BMP280;14177;51.520;6.764;2023-09-18T10:52:12;100234.69;;;26.28
69785;BMP280;14177;51.520;6.764;2023-09-18T10:54:41;100226.06;;;26.34
69785;BMP280;14177;51.520;6.764;2023-09-18T10:57:08;100232.09;;;26.44
69785;BMP280;14177;51.520;6.764;2023-09-18T10:59:44;100232.53;;;26.57
69785;BMP280;14177;51.520;6.764;2023-09-18T11:02:16;100226.69;;;26.61
69785;BMP280;14177;51.520;6.764;2023-09-18T11:04:45;100218.13;;;26.91
69785;BMP280;14177;51.520;6.764;2023-09-18T11:07:22;100225.63;;;26.96
69785;BMP280;14177;51.520;6.764;2023-09-18T11:09:49;100218.63;;;27.03
69785;BMP280;14177;51.520;6.764;2023-09-18T11:12:17;100222.53;;;26.59
69785;BMP280;14177;51.520;6.764;2023-09-18T11:14:58;100230.69;;;26.57
69785;BMP280;14177;51.520;6.764;2023-09-18T11:20:16;100230.69;;;27.23
69785;BMP280;14177;51.520;6.764;2023-09-18T11:23:10;100234.16;;;27.23
69785;BMP280;14177;51.520;6.764;2023-09-18T11:25:42;100225.84;;;27.18
69785;BMP280;14177;51.520;6.764;2023-09-18T11:28:22;100233.16;;;27.08
69785;BMP280;14177;51.520;6.764;2023-09-18T11:30:53;100239.50;;;27.31
69785;BMP280;14177;51.520;6.764;2023-09-18T11:33:39;100231.19;;;27.26
69785;BMP280;14177;51.520;6.764;2023-09-18T11:38:58;100241.50;;;26.30
69785;BMP280;14177;51.520;6.764;2023-09-18T11:41:33;100215.75;;;25.98
69785;BMP280;14177;51.520;6.764;2023-09-18T11:46:49;100213.81;;;25.65
69785;BMP280;14177;51.520;6.764;2023-09-18T11:49:24;100220.97;;;25.39
69785;BMP280;14177;51.520;6.764;2023-09-18T11:51:58;100224.91;;;25.17
69785;BMP280;14177;51.520;6.764;2023-09-18T11:54:27;100222.94;;;25.19
69785;BMP280;14177;51.520;6.764;2023-09-18T11:56:54;100208.28;;;25.33
69785;BMP280;14177;51.520;6.764;2023-09-18T11:59:37;100210.94;;;26.01
69785;BMP280;14177;51.520;6.764;2023-09-18T12:02:10;100218.25;;;26.40
69785;BMP280;14177;51.520;6.764;2023-09-18T12:04:38;100217.75;;;26.78
69785;BMP280;14177;51.520;6.764;2023-09-18T12:07:07;100209.78;;;26.78
69785;BMP280;14177;51.520;6.764;2023-09-18T12:09:35;100211.69;;;27.10
69785;BMP280;14177;51.520;6.764;2023-09-18T12:12:06;100208.44;;;26.98
69785;BMP280;14177;51.520;6.764;2023-09-18T12:14:34;100202.69;;;26.53
69785;BMP280;14177;51.520;6.764;2023-09-18T12:17:03;100192.28;;;26.34
69785;BMP280;14177;51.520;6.764;2023-09-18T12:19:30;100197.88;;;26.23
69785;BMP280;14177;51.520;6.764;2023-09-18T12:21:57;100200.28;;;26.01
69785;BMP280;14177;51.520;6.764;2023-09-18T12:24:25;100190.94;;;26.22
69785;BMP280;14177;51.520;6.764;2023-09-18T12:26:54;100197.63;;;26.42
69785;BMP280;14177;51.520;6.764;2023-09-18T12:29:22;100206.47;;;26.84
69785;BMP280;14177;51.520;6.764;2023-09-18T12:31:49;100194.47;;;27.04
69785;BMP280;14177;51.520;6.764;2023-09-18T12:34:21;100197.53;;;27.33
69785;BMP280;14177;51.520;6.764;2023-09-18T12:36:50;100191.16;;;27.58
69785;BMP280;14177;51.520;6.764;2023-09-18T12:39:18;100175.44;;;27.87
69785;BMP280;14177;51.520;6.764;2023-09-18T12:41:48;100194.03;;;28.19
69785;BMP280;14177;51.520;6.764;2023-09-18T12:44:15;100187.34;;;28.23
69785;BMP280;14177;51.520;6.764;2023-09-18T12:46:44;100194.84;;;28.19
69785;BMP280;14177;51.520;6.764;2023-09-18T12:49:21;100187.69;;;28.20
69785;BMP280;14177;51.520;6.764;2023-09-18T12:52:00;100180.34;;;28.60
69785;BMP280;14177;51.520;6.764;2023-09-18T12:54:45;100174.72;;;28.77
69785;BMP280;14177;51.520;6.764;2023-09-18T12:57:20;100185.09;;;28.72
69785;BMP280;14177;51.520;6.764;2023-09-18T12:59:47;100192.69;;;28.23
69785;BMP280;14177;51.520;6.764;2023-09-18T13:02:18;100178.06;;;28.11
69785;BMP280;14177;51.520;6.764;2023-09-18T13:04:56;100170.63;;;27.90
69785;BMP280;14177;51.520;6.764;2023-09-18T13:07:24;100166.00;;;27.52
69785;BMP280;14177;51.520;6.764;2023-09-18T13:10:03;100167.53;;;27.15
69785;BMP280;14177;51.520;6.764;2023-09-18T13:12:42;100178.78;;;26.77
69785;BMP280;14177;51.520;6.764;2023-09-18T13:15:10;100171.72;;;26.44
69785;BMP280;14177;51.520;6.764;2023-09-18T13:17:44;100164.94;;;26.16
69785;BMP280;14177;51.520;6.764;2023-09-18T13:20:14;100168.25;;;26.10
69785;BMP280;14177;51.520;6.764;2023-09-18T13:22:48;100174.34;;;26.03
69785;BMP280;14177;51.520;6.764;2023-09-18T13:25:30;100169.25;;;26.51
69785;BMP280;14177;51.520;6.764;2023-09-18T13:27:57;100159.47;;;26.99
69785;BMP280;14177;51.520;6.764;2023-09-18T13:30:24;100155.84;;;27.32
69785;BMP280;14177;51.520;6.764;2023-09-18T13:33:01;100140.16;;;27.61
69785;BMP280;14177;51.520;6.764;2023-09-18T13:35:28;100145.91;;;27.96
69785;BMP280;14177;51.520;6.764;2023-09-18T13:37:55;100137.69;;;28.06
69785;BMP280;14177;51.520;6.764;2023-09-18T13:40:22;100138.34;;;28.08
69785;BMP280;14177;51.520;6.764;2023-09-18T13:42:50;100138.31;;;27.53
69785;BMP280;14177;51.520;6.764;2023-09-18T13:45:18;100135.31;;;27.72
69785;BMP280;14177;51.520;6.764;2023-09-18T13:47:45;100140.53;;;27.42
69785;BMP280;14177;51.520;6.764;2023-09-18T13:50:12;100135.19;;;27.34
69785;BMP280;14177;51.520;6.764;2023-09-18T13:52:41;100129.47;;;27.69
69785;BMP280;14177;51.520;6.764;2023-09-18T13:55:08;100130.56;;;28.37
69785;BMP280;14177;51.520;6.764;2023-09-18T13:57:36;100117.56;;;28.34
69785;BMP280;14177;51.520;6.764;2023-09-18T14:00:05;100125.41;;;27.89
69785;BMP280;14177;51.520;6.764;2023-09-18T14:02:41;100135.75;;;27.92
69785;BMP280;14177;51.520;6.764;2023-09-18T14:05:10;100117.16;;;28.06
69785;BMP280;14177;51.520;6.764;2023-09-18T14:07:44;100115.00;;;28.40
69785;BMP280;14177;51.520;6.764;2023-09-18T14:10:15;100123.31;;;28.15
69785;BMP280;14177;51.520;6.764;2023-09-18T14:12:43;100130.03;;;28.03
69785;BMP280;14177;51.520;6.764;2023-09-18T14:15:11;100117.25;;;27.90
69785;BMP280;14177;51.520;6.764;2023-09-18T14:17:39;100118.75;;;27.85
69785;BMP280;14177;51.520;6.764;2023-09-18T14:20:06;100110.72;;;27.93
69785;BMP280;14177;51.520;6.764;2023-09-18T14:22:35;100091.38;;;27.91
69785;BMP280;14177;51.520;6.764;2023-09-18T14:25:03;100094.56;;;27.94